Terminal Aerodrome Forecast
Issued by NWS

Home | Current Version | Previous Version | Text Only | Print | Product List | Glossary On
Versions: 1 2 3 4 5 6 7 8 9 10 11 12 13 14 15 16 17 18 19 20 21 22 23 24 25 26 27 28 29 30 31
000
FTPA31 PHFO 201400 AAA
TAFITO
TAF AMD
PHTO 201400Z 2014/2112 23005KT P6SM VCSH SCT025 BKN050
     FM202100 06009KT P6SM SCT025 BKN050
     FM210700 23005KT P6SM VCSH SCT025 BKN045=

USA.gov is the U.S. government's official web portal to all federal, state and local government web resources and services.